Time;durP1;ratioP1;P1;durP2;ratioP2;P2;SDS_P1;SDS_P2;PMS_P1;PMS_P2;Temp;Humidity;BMP_temperature;BMP_pressure;BME280_temperature;BME280_humidity;BME280_pressure;Samples;Min_cycle;Max_cycle;Signal;HPM_P1;HPM_P2
2021/10/08 00:01:38;;;;;;;51.72;23.38;;;;;;;9.27;99.63;103202.34;5052897;28;20028;-56
2021/10/08 00:04:04;;;;;;;59.20;25.75;;;;;;;9.25;99.66;103199.69;5053118;28;20116;-58
2021/10/08 00:06:29;;;;;;;54.17;24.15;;;;;;;9.25;99.83;103204.13;5052929;28;20028;-58
2021/10/08 00:08:56;;;;;;;55.33;24.65;;;;;;;9.21;100.00;103208.53;5052984;28;20029;-55
2021/10/08 00:11:21;;;;;;;53.17;24.10;;;;;;;9.20;99.97;103200.59;5052522;28;20511;-53
2021/10/08 00:13:47;;;;;;;55.47;25.00;;;;;;;9.16;100.00;103205.88;5053156;28;20025;-55
2021/10/08 00:16:13;;;;;;;53.95;25.05;;;;;;;9.18;99.90;103204.13;5052563;28;20047;-56
2021/10/08 00:18:38;;;;;;;56.50;26.25;;;;;;;9.22;100.00;103207.66;5052878;28;20182;-56
2021/10/08 00:21:05;;;;;;;70.00;28.63;;;;;;;9.30;100.00;103207.63;5052387;28;20029;-54
2021/10/08 00:23:31;;;;;;;83.60;31.77;;;;;;;9.44;100.00;103200.53;5051562;28;20091;-56
2021/10/08 00:25:57;;;;;;;72.70;28.35;;;;;;;9.59;100.00;103204.03;5052584;28;20068;-55
2021/10/08 00:28:22;;;;;;;74.32;28.00;;;;;;;9.65;100.00;103214.59;5053059;28;20085;-56
2021/10/08 00:30:48;;;;;;;83.53;27.98;;;;;;;9.71;100.00;103211.94;5053031;28;20424;-55
2021/10/08 00:33:13;;;;;;;56.35;24.80;;;;;;;9.74;100.00;103217.22;5052433;28;20041;-57
2021/10/08 00:35:39;;;;;;;57.30;24.70;;;;;;;9.70;100.00;103211.94;5052754;28;20021;-56
2021/10/08 00:38:06;;;;;;;48.38;23.77;;;;;;;9.70;100.00;103214.59;5052088;28;20032;-54
2021/10/08 00:40:40;;;;;;;58.38;25.60;;;;;;;9.71;100.00;103217.22;5052674;28;20045;-55
2021/10/08 00:43:06;;;;;;;65.93;23.17;;;;;;;9.66;100.00;103216.38;5052586;28;20047;-52
2021/10/08 00:45:32;;;;;;;64.88;24.25;;;;;;;9.62;100.00;103219.91;5052541;28;20037;-57
2021/10/08 00:48:04;;;;;;;54.25;24.35;;;;;;;9.57;100.00;103216.41;5052284;28;20021;-55
2021/10/08 00:50:31;;;;;;;60.97;23.50;;;;;;;9.55;100.00;103216.38;5052474;28;20035;-54
2021/10/08 00:52:56;;;;;;;52.95;24.92;;;;;;;9.51;99.79;103222.56;5052237;28;20032;-56
2021/10/08 00:55:21;;;;;;;52.58;23.23;;;;;;;9.48;100.00;103223.44;5052177;28;20112;-56
2021/10/08 00:57:47;;;;;;;74.68;24.33;;;;;;;9.46;99.87;103221.69;5052367;28;20029;-53
2021/10/08 01:00:15;;;;;;;48.85;23.08;;;;;;;9.44;99.99;103216.41;5052403;28;20477;-54
2021/10/08 01:02:40;;;;;;;65.10;24.67;;;;;;;9.43;99.88;103216.44;5052429;28;20037;-55
2021/10/08 01:05:06;;;;;;;66.88;23.55;;;;;;;9.41;99.76;103227.00;5052289;28;20024;-54
2021/10/08 01:07:31;;;;;;;56.92;23.60;;;;;;;9.41;100.00;103226.13;5051964;28;20396;-56
2021/10/08 01:09:57;;;;;;;58.08;25.05;;;;;;;9.39;99.92;103226.13;5051558;28;20021;-59
2021/10/08 01:12:22;;;;;;;44.97;22.33;;;;;;;9.43;100.00;103217.28;5051552;28;20090;-58
2021/10/08 01:14:47;;;;;;;51.75;23.25;;;;;;;9.32;99.68;103227.00;5052070;28;20025;-55
2021/10/08 01:17:15;;;;;;;62.70;24.23;;;;;;;9.33;99.69;103228.78;5052420;28;20029;-55
2021/10/08 01:19:40;;;;;;;56.28;23.73;;;;;;;9.35;99.89;103227.00;5051449;28;20078;-56
2021/10/08 01:22:05;;;;;;;52.65;24.50;;;;;;;9.34;99.94;103228.75;5052465;28;20491;-55
2021/10/08 01:24:31;;;;;;;51.05;22.10;;;;;;;9.36;99.75;103223.50;5051448;28;20033;-57
2021/10/08 01:26:56;;;;;;;57.15;24.48;;;;;;;9.33;99.68;103227.03;5051635;28;20026;-58
2021/10/08 01:29:22;;;;;;;48.53;23.27;;;;;;;9.33;99.46;103228.78;5052235;28;20025;-55
2021/10/08 01:31:47;;;;;;;59.13;22.73;;;;;;;9.26;98.90;103225.25;5052925;28;20056;-56
2021/10/08 01:34:12;;;;;;;52.60;23.55;;;;;;;9.26;99.16;103221.72;5056287;28;20111;-57
2021/10/08 01:36:38;;;;;;;73.50;23.83;;;;;;;9.25;99.12;103219.97;5056348;28;20469;-53
2021/10/08 01:39:03;;;;;;;46.10;23.20;;;;;;;9.20;98.98;103219.97;5056319;28;20384;-56
2021/10/08 01:41:28;;;;;;;47.47;22.13;;;;;;;9.18;98.66;103221.72;5055252;28;20045;-56
2021/10/08 01:43:54;;;;;;;43.70;21.35;;;;;;;9.15;98.52;103227.91;5055885;28;20025;-54
2021/10/08 01:46:19;;;;;;;45.40;23.85;;;;;;;9.12;98.83;103233.19;5055046;28;20029;-55
2021/10/08 01:48:45;;;;;;;56.53;23.02;;;;;;;9.07;98.55;103227.03;5055218;28;20364;-57
2021/10/08 01:51:10;;;;;;;51.78;22.95;;;;;;;8.96;98.41;103228.78;5055272;28;20057;-53
2021/10/08 01:53:35;;;;;;;45.95;21.95;;;;;;;8.84;97.67;103229.66;5056205;28;20029;-52
2021/10/08 01:56:01;;;;;;;77.38;21.65;;;;;;;8.81;98.98;103227.91;5055461;28;20033;-56
2021/10/08 01:58:26;;;;;;;47.83;23.60;;;;;;;8.87;99.07;103231.44;5055396;28;20033;-58
2021/10/08 02:00:51;;;;;;;53.47;23.30;;;;;;;8.89;98.84;103230.56;5055751;28;20025;-54
2021/10/08 02:03:17;;;;;;;91.88;22.48;;;;;;;8.85;98.91;103227.03;5055132;28;20396;-57
2021/10/08 02:05:42;;;;;;;69.65;22.02;;;;;;;8.83;98.78;103228.78;5055670;28;20465;-53
2021/10/08 02:08:08;;;;;;;57.83;22.90;;;;;;;8.79;98.40;103232.28;5055598;28;20032;-60
2021/10/08 02:10:33;;;;;;;45.90;22.80;;;;;;;8.80;98.72;103236.72;5055520;28;20036;-60
2021/10/08 02:12:58;;;;;;;118.13;21.90;;;;;;;8.76;99.00;103229.66;5054929;28;20075;-54
2021/10/08 02:15:24;;;;;;;42.83;22.20;;;;;;;8.71;98.12;103227.88;5055628;28;20365;-54
2021/10/08 02:17:49;;;;;;;42.55;21.75;;;;;;;8.72;98.56;103229.66;5055077;28;20033;-53
2021/10/08 02:20:14;;;;;;;49.47;21.05;;;;;;;8.67;98.53;103227.88;5055179;28;20021;-57
2021/10/08 02:22:41;;;;;;;39.17;20.75;;;;;;;8.62;98.39;103220.81;5055464;28;20032;-55
2021/10/08 02:25:07;;;;;;;93.70;21.02;;;;;;;8.50;97.81;103219.94;5055168;28;20377;-53
2021/10/08 02:27:32;;;;;;;70.82;20.58;;;;;;;8.42;97.75;103228.69;5054998;28;20024;-54
2021/10/08 02:29:57;;;;;;;58.30;21.60;;;;;;;8.38;98.32;103230.44;5056043;28;20114;-59
2021/10/08 02:32:23;;;;;;;50.40;19.65;;;;;;;8.37;98.72;103229.53;5055110;28;20226;-56
2021/10/08 02:34:48;;;;;;;43.83;22.00;;;;;;;8.34;98.65;103226.03;5054634;28;20037;-54
2021/10/08 02:37:13;;;;;;;51.00;21.20;;;;;;;8.34;98.86;103233.94;5054949;28;20029;-54
2021/10/08 02:39:39;;;;;;;48.58;20.88;;;;;;;8.31;98.53;103226.00;5054824;28;20031;-54
2021/10/08 02:42:05;;;;;;;55.63;21.10;;;;;;;8.30;98.88;103232.16;5054061;28;20056;-55
2021/10/08 02:44:31;;;;;;;46.83;23.83;;;;;;;8.31;99.39;103237.47;5054771;28;20061;-52
2021/10/08 02:46:57;;;;;;;39.72;21.85;;;;;;;8.35;99.51;103230.41;5054637;28;20021;-55
2021/10/08 02:49:23;;;;;;;51.28;21.42;;;;;;;8.40;99.83;103239.25;5054732;28;20048;-54
2021/10/08 02:51:50;;;;;;;60.72;20.50;;;;;;;8.35;98.88;103230.41;5054000;28;20035;-54
2021/10/08 02:54:15;;;;;;;87.55;20.27;;;;;;;8.29;98.64;103233.91;5054548;28;20024;-55
2021/10/08 02:56:41;;;;;;;39.33;20.65;;;;;;;8.31;99.19;103229.53;5054480;28;20035;-52
2021/10/08 02:59:07;;;;;;;38.35;19.45;;;;;;;8.28;98.87;103232.16;5054372;28;20090;-55
2021/10/08 03:01:32;;;;;;;57.22;20.13;;;;;;;8.20;98.58;103236.53;5054254;28;20451;-58
2021/10/08 03:04:00;;;;;;;49.30;20.27;;;;;;;8.17;98.50;103234.75;5054624;28;20079;-55
2021/10/08 03:06:25;;;;;;;57.22;19.85;;;;;;;8.14;98.61;103231.22;5054025;28;20035;-54
2021/10/08 03:08:53;;;;;;;41.40;21.77;;;;;;;8.17;98.76;103233.88;5054726;28;20029;-53
2021/10/08 03:11:18;;;;;;;44.53;20.83;;;;;;;8.24;99.13;103234.78;5054025;28;20059;-55
2021/10/08 03:13:44;;;;;;;39.50;20.17;;;;;;;8.27;99.53;103237.44;5053930;28;20061;-53
2021/10/08 03:16:09;;;;;;;47.75;20.60;;;;;;;8.28;99.11;103240.06;5054171;28;20025;-57
2021/10/08 03:18:35;;;;;;;40.22;20.75;;;;;;;8.32;99.13;103246.25;5054136;28;20032;-59
2021/10/08 03:21:01;;;;;;;47.70;19.75;;;;;;;8.28;99.02;103234.78;5054229;28;20417;-53
2021/10/08 03:23:26;;;;;;;42.38;20.48;;;;;;;8.27;98.65;103234.78;5053750;28;20036;-58
2021/10/08 03:25:51;;;;;;;84.05;20.63;;;;;;;8.27;98.74;103243.56;5053747;28;20090;-52
2021/10/08 03:28:17;;;;;;;38.70;19.38;;;;;;;8.26;98.37;103244.47;5053518;28;20033;-55
2021/10/08 03:30:42;;;;;;;37.53;19.92;;;;;;;8.24;98.29;103242.72;5053728;28;20116;-55
2021/10/08 03:33:07;;;;;;;40.83;19.85;;;;;;;8.24;98.56;103240.06;5053468;28;20029;-54
2021/10/08 03:35:33;;;;;;;46.88;18.45;;;;;;;8.14;98.02;103234.72;5053893;28;20025;-56
2021/10/08 03:38:11;;;;;;;50.75;20.00;;;;;;;8.08;97.93;103234.72;5053451;28;20350;-55
2021/10/08 03:40:37;;;;;;;39.33;20.45;;;;;;;8.03;98.67;103245.25;5053572;28;20039;-55
2021/10/08 03:43:02;;;;;;;45.17;20.33;;;;;;;8.00;98.21;103241.72;5053655;28;20033;-53
2021/10/08 03:45:42;;;;;;;40.90;18.55;;;;;;;7.99;98.46;103238.22;5053583;28;20032;-54
2021/10/08 03:50:48;;;;;;;42.50;20.33;;;;;;;8.03;99.38;103239.09;5053804;28;20124;-56
2021/10/08 03:53:14;;;;;;;44.10;19.95;;;;;;;8.07;99.43;103238.25;5052934;28;20107;-54
2021/10/08 03:55:41;;;;;;;37.13;20.23;;;;;;;8.06;99.12;103241.75;5052607;28;20029;-59
2021/10/08 03:58:06;;;;;;;36.50;19.70;;;;;;;8.09;99.35;103238.25;5053115;28;20453;-54
2021/10/08 04:00:32;;;;;;;38.60;19.02;;;;;;;8.12;99.32;103243.53;5052510;28;20056;-54
2021/10/08 04:02:57;;;;;;;46.72;18.42;;;;;;;8.11;98.89;103241.78;5053197;28;20032;-57
2021/10/08 04:05:22;;;;;;;41.55;16.80;;;;;;;8.08;98.58;103233.84;5052304;28;20104;-54
2021/10/08 04:07:48;;;;;;;46.00;18.90;;;;;;;8.00;98.59;103242.59;5053329;28;20027;-58
2021/10/08 04:10:13;;;;;;;40.58;19.25;;;;;;;7.98;98.81;103244.34;5052537;28;20485;-54
2021/10/08 04:12:38;;;;;;;62.90;20.67;;;;;;;8.00;99.15;103239.94;5052773;28;20029;-57
2021/10/08 04:15:05;;;;;;;34.20;19.10;;;;;;;8.05;98.92;103232.06;5052500;28;20035;-58
2021/10/08 04:17:30;;;;;;;44.17;19.75;;;;;;;8.08;99.20;103236.47;5052387;28;20397;-55
2021/10/08 04:19:55;;;;;;;95.75;20.48;;;;;;;8.11;99.01;103247.06;5052327;28;20025;-59
2021/10/08 04:22:21;;;;;;;31.95;18.05;;;;;;;8.12;98.99;103244.41;5052398;28;20499;-55
2021/10/08 04:24:46;;;;;;;38.00;19.50;;;;;;;8.12;98.58;103244.41;5052951;28;20129;-55
2021/10/08 04:27:11;;;;;;;46.55;20.10;;;;;;;8.12;98.87;103243.53;5052475;28;20029;-55
2021/10/08 04:29:37;;;;;;;48.50;20.05;;;;;;;8.10;99.01;103243.53;5052486;28;20016;-57
2021/10/08 04:32:02;;;;;;;43.90;20.20;;;;;;;8.12;99.27;103241.78;5052178;28;20487;-53
2021/10/08 04:34:28;;;;;;;72.97;19.58;;;;;;;8.13;98.93;103246.19;5052227;28;20437;-58
2021/10/08 04:36:53;;;;;;;67.00;20.67;;;;;;;8.13;98.62;103248.84;5051492;28;20021;-54
2021/10/08 04:39:18;;;;;;;34.50;19.35;;;;;;;8.11;98.35;103244.41;5052511;28;20025;-55
2021/10/08 04:41:43;;;;;;;68.45;20.25;;;;;;;8.09;98.60;103251.44;5052316;28;20045;-55
2021/10/08 04:44:09;;;;;;;48.42;20.23;;;;;;;8.03;98.48;103244.34;5052777;28;20079;-54
2021/10/08 04:46:34;;;;;;;64.68;21.15;;;;;;;8.00;98.78;103252.28;5050795;28;20021;-56
2021/10/08 04:49:00;;;;;;;40.45;20.02;;;;;;;7.93;98.56;103248.72;5032622;28;20036;-55
2021/10/08 04:51:25;;;;;;;53.35;20.45;;;;;;;7.89;98.72;103246.97;5032296;28;20116;-57
2021/10/08 04:53:50;;;;;;;40.90;21.17;;;;;;;7.92;99.14;103252.25;5038293;28;20038;-56
2021/10/08 04:56:15;;;;;;;67.95;20.20;;;;;;;7.88;99.88;103253.09;5039581;28;20024;-54
2021/10/08 04:58:41;;;;;;;56.65;20.25;;;;;;;7.87;98.99;103241.66;5051755;28;20029;-60
2021/10/08 05:01:06;;;;;;;72.78;20.83;;;;;;;7.77;98.92;103246.88;5051798;28;20029;-55
2021/10/08 05:03:31;;;;;;;36.47;20.33;;;;;;;7.76;99.20;103240.72;5051934;28;20120;-55
2021/10/08 05:05:57;;;;;;;47.17;21.17;;;;;;;7.80;99.68;103249.53;5052076;28;20060;-56
2021/10/08 05:08:22;;;;;;;53.95;19.63;;;;;;;7.78;99.48;103249.53;5051842;28;20028;-50
2021/10/08 05:10:49;;;;;;;42.17;21.42;;;;;;;7.81;99.77;103253.94;5052594;28;20029;-54
2021/10/08 05:13:15;;;;;;;56.83;20.83;;;;;;;7.84;100.00;103252.19;5050056;28;20481;-57
2021/10/08 05:15:40;;;;;;;95.95;21.10;;;;;;;7.79;99.76;103259.22;5051950;28;20052;-56
2021/10/08 05:18:06;;;;;;;55.97;19.75;;;;;;;7.74;99.64;103252.13;5051895;28;20457;-59
2021/10/08 05:20:31;;;;;;;46.42;20.25;;;;;;;7.75;99.74;103260.06;5051871;28;20515;-57
2021/10/08 05:22:57;;;;;;;64.50;20.52;;;;;;;7.70;99.57;103267.06;5052062;28;20025;-56
2021/10/08 05:25:22;;;;;;;47.88;21.63;;;;;;;7.78;100.00;103269.75;5050770;28;20044;-57
2021/10/08 05:27:47;;;;;;;91.78;21.90;;;;;;;7.79;100.00;103271.53;5051370;28;20021;-57
2021/10/08 05:30:14;;;;;;;148.55;22.90;;;;;;;7.68;99.95;103264.41;5051114;28;20435;-55
2021/10/08 05:32:40;;;;;;;38.83;19.30;;;;;;;7.62;99.64;103271.41;5051345;28;20036;-56
2021/10/08 05:35:07;;;;;;;37.92;19.65;;;;;;;7.71;100.00;103266.16;5051217;28;20400;-59
2021/10/08 05:37:32;;;;;;;39.95;18.35;;;;;;;7.77;100.00;103260.94;5051859;28;20497;-58
2021/10/08 05:39:58;;;;;;;54.97;19.50;;;;;;;7.78;100.00;103270.63;5051584;28;20057;-51
2021/10/08 05:42:23;;;;;;;38.83;18.98;;;;;;;7.82;100.00;103275.03;5052002;28;20031;-53
2021/10/08 05:44:48;;;;;;;36.40;19.15;;;;;;;7.89;100.00;103275.97;5051816;28;20136;-55
2021/10/08 05:47:14;;;;;;;50.95;19.77;;;;;;;7.86;100.00;103278.59;5049514;28;20052;-56
2021/10/08 05:49:39;;;;;;;39.80;19.38;;;;;;;7.92;100.00;103270.72;5047518;28;20037;-56
2021/10/08 05:52:05;;;;;;;34.67;19.25;;;;;;;7.96;100.00;103274.25;5058479;28;20082;-56
2021/10/08 05:54:30;;;;;;;67.78;18.48;;;;;;;7.98;100.00;103275.13;5066801;28;20334;-56
2021/10/08 05:56:55;;;;;;;51.65;19.25;;;;;;;7.93;100.00;103285.66;5055101;28;20048;-57
2021/10/08 05:59:21;;;;;;;55.65;19.85;;;;;;;7.97;100.00;103276.03;5047356;28;20382;-58
2021/10/08 06:01:46;;;;;;;60.28;19.02;;;;;;;7.97;99.94;103276.88;5046719;28;20465;-57
2021/10/08 06:04:11;;;;;;;54.28;17.67;;;;;;;7.90;99.54;103279.50;5046362;28;20048;-57
2021/10/08 06:06:37;;;;;;;56.38;19.20;;;;;;;7.86;99.48;103274.22;5046830;28;20025;-56
2021/10/08 06:09:03;;;;;;;67.97;18.35;;;;;;;7.92;99.60;103275.13;5047971;28;20044;-58
2021/10/08 06:11:29;;;;;;;49.53;20.20;;;;;;;7.99;99.88;103279.53;5046736;28;20494;-56
2021/10/08 06:13:55;;;;;;;47.88;18.45;;;;;;;8.00;99.84;103278.66;5046551;28;20100;-56
2021/10/08 06:16:20;;;;;;;46.15;18.35;;;;;;;7.92;99.39;103280.38;5047346;28;20044;-58
2021/10/08 06:18:45;;;;;;;51.38;18.45;;;;;;;7.93;99.30;103283.03;5050026;28;20028;-59
2021/10/08 06:21:11;;;;;;;127.88;18.75;;;;;;;7.95;99.69;103289.19;5051780;28;20029;-58
2021/10/08 06:23:36;;;;;;;33.25;17.33;;;;;;;7.91;99.25;103289.16;5050402;28;20479;-57
2021/10/08 06:26:02;;;;;;;32.92;16.70;;;;;;;7.99;99.96;103290.97;5051699;28;20062;-55
2021/10/08 06:28:27;;;;;;;51.92;17.92;;;;;;;8.06;99.67;103299.81;5050148;28;20433;-58
2021/10/08 06:30:52;;;;;;;45.40;17.40;;;;;;;8.07;99.86;103298.94;5050482;28;20040;-55
2021/10/08 06:33:18;;;;;;;51.95;17.42;;;;;;;8.03;99.34;103299.78;5049926;28;20043;-56
2021/10/08 06:35:43;;;;;;;43.67;15.38;;;;;;;8.05;99.05;103292.75;5049625;28;20174;-56
2021/10/08 06:38:10;;;;;;;38.40;16.98;;;;;;;8.13;99.24;103293.69;5051156;28;20044;-58
2021/10/08 06:40:36;;;;;;;47.15;17.00;;;;;;;8.16;99.12;103306.91;5048625;28;20049;-58
2021/10/08 06:43:02;;;;;;;37.58;17.08;;;;;;;8.20;99.01;103306.03;5049954;28;20439;-58
2021/10/08 06:45:28;;;;;;;50.38;16.85;;;;;;;8.24;99.73;103313.97;5049643;28;20159;-57
2021/10/08 06:47:54;;;;;;;34.00;17.73;;;;;;;8.31;99.17;103313.13;5050163;28;20449;-56
2021/10/08 06:50:19;;;;;;;64.90;16.27;;;;;;;8.22;98.51;103313.06;5048410;28;20049;-55
2021/10/08 06:52:44;;;;;;;53.92;16.42;;;;;;;8.14;97.55;103313.03;5049275;28;20037;-58
2021/10/08 06:55:10;;;;;;;34.30;15.13;;;;;;;8.03;97.33;103315.59;5039815;28;20029;-56
2021/10/08 06:57:35;;;;;;;37.88;17.48;;;;;;;8.14;98.39;103318.31;5030060;28;20155;-56
2021/10/08 07:00:00;;;;;;;47.72;18.02;;;;;;;8.26;98.75;103313.13;5034837;28;20024;-58
2021/10/08 07:02:26;;;;;;;26.27;16.42;;;;;;;8.32;98.09;103320.16;5033976;28;20120;-58
2021/10/08 07:04:51;;;;;;;28.25;15.98;;;;;;;8.40;97.92;103325.47;5037709;28;20037;-58
2021/10/08 07:07:17;;;;;;;37.45;16.75;;;;;;;8.44;98.33;103320.22;5049410;28;20029;-56
2021/10/08 07:09:43;;;;;;;44.00;15.63;;;;;;;8.54;98.13;103329.06;5047159;28;20078;-56
2021/10/08 07:12:08;;;;;;;46.55;15.48;;;;;;;8.56;97.34;103329.13;5049349;28;20069;-58
2021/10/08 07:14:34;;;;;;;37.97;17.45;;;;;;;8.64;97.13;103327.38;5049929;28;20048;-56
2021/10/08 07:16:59;;;;;;;48.20;17.90;;;;;;;8.70;97.32;103327.38;5049587;28;20075;-57
2021/10/08 07:19:25;;;;;;;69.63;15.40;;;;;;;8.71;95.13;103328.25;5049489;28;20104;-58
2021/10/08 07:21:51;;;;;;;63.70;16.83;;;;;;;8.65;95.49;103330.00;5048695;28;20453;-57
2021/10/08 07:24:17;;;;;;;24.35;15.20;;;;;;;8.68;95.86;103329.13;5047093;28;20075;-58
2021/10/08 07:26:42;;;;;;;45.25;15.65;;;;;;;8.79;95.77;103339.75;5049311;28;20060;-59
2021/10/08 07:29:08;;;;;;;42.20;16.17;;;;;;;8.88;95.14;103344.19;5045782;28;20112;-57
2021/10/08 07:31:33;;;;;;;25.67;14.82;;;;;;;8.94;95.00;103341.53;5049011;28;20094;-56
2021/10/08 07:33:59;;;;;;;31.95;14.85;;;;;;;8.91;94.71;103345.03;5049495;28;20036;-57
2021/10/08 07:36:25;;;;;;;29.83;13.48;;;;;;;8.91;93.89;103345.03;5049124;28;20036;-58
2021/10/08 07:38:50;;;;;;;29.33;16.30;;;;;;;9.01;94.61;103341.56;5051102;28;20033;-58
2021/10/08 07:41:16;;;;;;;59.88;16.23;;;;;;;8.98;93.94;103344.19;5059090;28;20071;-57
2021/10/08 07:43:41;;;;;;;107.28;17.17;;;;;;;8.82;93.21;103348.56;5050376;28;20029;-56
2021/10/08 07:46:08;;;;;;;55.63;14.65;;;;;;;8.72;93.59;103349.41;5042190;28;20097;-58
2021/10/08 07:48:34;;;;;;;45.10;15.98;;;;;;;8.67;94.40;103351.13;5049496;28;20089;-59
2021/10/08 07:51:00;;;;;;;88.75;16.73;;;;;;;8.67;94.10;103344.13;5040599;28;20033;-55
2021/10/08 07:53:26;;;;;;;55.17;14.55;;;;;;;8.63;94.66;103352.91;5029046;28;20460;-50
2021/10/08 07:55:51;;;;;;;40.88;14.02;;;;;;;8.60;94.14;103352.88;5029520;28;20053;-57
2021/10/08 07:58:16;;;;;;;47.03;14.57;;;;;;;8.83;95.58;103350.31;5028771;28;20335;-53
2021/10/08 08:00:42;;;;;;;99.68;15.57;;;;;;;8.96;94.73;103355.63;5044338;28;20110;-55
2021/10/08 08:03:07;;;;;;;110.10;15.80;;;;;;;8.83;93.42;103354.72;5049044;28;20029;-56
2021/10/08 08:05:33;;;;;;;24.20;14.70;;;;;;;8.84;93.94;103353.84;5048544;28;20033;-49
2021/10/08 08:07:58;;;;;;;35.25;14.20;;;;;;;8.89;94.79;103352.09;5045570;28;20104;-54
2021/10/08 08:10:23;;;;;;;25.25;15.70;;;;;;;9.01;94.88;103348.59;5048474;28;20016;-55
2021/10/08 08:12:49;;;;;;;35.47;15.73;;;;;;;9.17;93.55;103355.69;5043112;28;20396;-55
2021/10/08 08:15:15;;;;;;;37.80;13.02;;;;;;;9.32;93.17;103360.13;5037767;28;20024;-54
2021/10/08 08:17:41;;;;;;;19.98;11.55;;;;;;;9.50;91.42;103359.25;5048506;28;20065;-54
2021/10/08 08:20:07;;;;;;;37.88;12.88;;;;;;;9.47;90.22;103351.28;5048775;28;20074;-57
2021/10/08 08:22:33;;;;;;;22.90;12.27;;;;;;;9.43;90.45;103361.88;5048452;28;20116;-53
2021/10/08 08:24:58;;;;;;;20.10;12.10;;;;;;;9.42;90.67;103365.41;5048793;28;20436;-55
2021/10/08 08:27:23;;;;;;;25.70;13.23;;;;;;;9.59;92.78;103358.38;5047255;28;20051;-56
2021/10/08 08:29:49;;;;;;;25.42;12.60;;;;;;;9.74;91.52;103356.59;5046097;28;20401;-55
2021/10/08 08:32:15;;;;;;;28.63;12.18;;;;;;;9.90;90.89;103357.44;5043214;28;20448;-56
2021/10/08 08:34:41;;;;;;;27.67;12.05;;;;;;;10.08;89.63;103362.72;5048721;28;20398;-56
2021/10/08 08:37:07;;;;;;;24.55;12.50;;;;;;;10.27;88.50;103357.38;5048661;28;20060;-56
2021/10/08 08:39:33;;;;;;;30.77;11.38;;;;;;;10.40;86.10;103368.84;5041509;28;20065;-57
2021/10/08 08:41:59;;;;;;;24.17;12.10;;;;;;;10.22;86.96;103373.25;5043023;28;20041;-56
2021/10/08 08:44:24;;;;;;;19.85;12.32;;;;;;;10.23;87.77;103369.75;5048057;28;20160;-56
2021/10/08 08:46:49;;;;;;;18.67;11.27;;;;;;;10.36;88.56;103365.31;5048117;28;20027;-54
2021/10/08 08:49:15;;;;;;;28.80;11.63;;;;;;;10.57;88.15;103366.13;5048142;28;20097;-56
2021/10/08 08:51:41;;;;;;;61.72;11.63;;;;;;;10.48;84.59;103365.25;5047996;28;20175;-56
2021/10/08 08:54:07;;;;;;;24.67;11.73;;;;;;;10.36;86.41;103364.41;5049004;28;20039;-57
2021/10/08 08:56:36;;;;;;;31.38;11.55;;;;;;;10.35;85.61;103373.25;5058993;28;20105;-56
2021/10/08 08:59:02;;;;;;;21.17;11.93;;;;;;;10.20;87.13;103371.50;5048247;28;20457;-54
2021/10/08 09:01:28;;;;;;;29.25;12.43;;;;;;;10.24;85.71;103378.56;5047630;28;20433;-51
2021/10/08 09:04:05;;;;;;;22.25;11.70;;;;;;;10.37;84.31;103371.47;5048472;28;20071;-54
2021/10/08 09:06:33;;;;;;;24.13;12.70;;;;;;;10.24;86.26;103376.78;5047818;28;20134;-54
2021/10/08 09:08:58;;;;;;;31.23;13.23;;;;;;;10.36;86.13;103367.97;5047317;28;20021;-56
2021/10/08 09:11:37;;;;;;;31.00;14.10;;;;;;;10.35;87.32;103362.66;5047284;28;20433;-56
2021/10/08 09:14:24;;;;;;;31.35;15.43;;;;;;;10.64;86.22;103365.22;5047753;28;20101;-56
2021/10/08 09:17:07;;;;;;;29.10;15.20;;;;;;;10.80;86.53;103366.88;5028095;28;20022;-54
2021/10/08 09:19:51;;;;;;;31.40;15.43;;;;;;;11.08;85.51;103364.06;5043712;28;20057;-55
2021/10/08 09:22:22;;;;;;;28.27;15.68;;;;;;;11.41;85.06;103361.19;5037147;28;20033;-56
2021/10/08 09:24:48;;;;;;;39.70;16.40;;;;;;;11.73;81.47;103362.69;5046919;28;20503;-56
2021/10/08 09:27:16;;;;;;;36.10;17.08;;;;;;;11.60;82.18;103364.59;5047856;28;20049;-57
2021/10/08 09:29:53;;;;;;;33.03;17.00;;;;;;;11.59;82.34;103360.16;5047310;28;20091;-56
2021/10/08 09:32:21;;;;;;;33.55;18.38;;;;;;;11.66;83.87;103368.94;5047408;28;20052;-52
2021/10/08 09:34:47;;;;;;;35.28;18.92;;;;;;;11.87;83.17;103362.56;5046990;28;20029;-54
2021/10/08 09:37:15;;;;;;;36.78;20.38;;;;;;;12.10;83.81;103362.38;5047599;28;20391;-56
2021/10/08 09:39:40;;;;;;;38.30;19.38;;;;;;;12.03;81.68;103363.31;5046601;28;20113;-56
2021/10/08 09:42:14;;;;;;;34.08;18.40;;;;;;;11.94;83.04;103361.59;5047333;28;20135;-56
2021/10/08 09:44:48;;;;;;;35.15;19.67;;;;;;;12.04;83.00;103363.28;5047872;28;20437;-56
2021/10/08 09:47:18;;;;;;;41.47;20.88;;;;;;;12.27;82.82;103348.88;5047677;28;20449;-53
2021/10/08 09:49:46;;;;;;;35.58;20.27;;;;;;;12.53;83.22;103360.97;5047052;28;20083;-54
2021/10/08 09:52:37;;;;;;;36.53;20.10;;;;;;;12.56;80.49;103352.97;5048341;28;20123;-55
2021/10/08 09:55:08;;;;;;;33.78;19.20;;;;;;;12.41;81.05;103362.88;5038659;28;20110;-54
2021/10/08 09:57:49;;;;;;;37.30;21.48;;;;;;;12.33;82.58;103358.53;5041452;28;20052;-55
2021/10/08 10:00:36;;;;;;;38.50;20.98;;;;;;;12.36;83.32;103353.22;5034813;28;20033;-55
2021/10/08 10:03:03;;;;;;;36.75;21.23;;;;;;;12.57;82.14;103365.34;5051247;28;20021;-55
2021/10/08 10:05:29;;;;;;;37.88;21.20;;;;;;;12.70;82.53;103361.63;5051494;28;20092;-55
2021/10/08 10:07:55;;;;;;;39.92;21.55;;;;;;;12.83;81.37;103358.81;5051397;28;20110;-53
2021/10/08 10:10:22;;;;;;;37.83;21.27;;;;;;;12.71;81.97;103362.50;5050673;28;20024;-55
2021/10/08 10:12:48;;;;;;;38.00;21.15;;;;;;;12.55;82.92;103362.72;5049889;28;20036;-56
2021/10/08 10:15:13;;;;;;;37.53;20.75;;;;;;;12.36;83.50;103359.41;5051100;28;20110;-54
2021/10/08 10:17:40;;;;;;;34.45;20.02;;;;;;;12.35;84.69;103368.25;5049981;28;20041;-53
2021/10/08 10:20:09;;;;;;;38.45;21.77;;;;;;;12.39;83.56;103362.03;5043107;28;20100;-55
2021/10/08 10:22:36;;;;;;;39.22;21.65;;;;;;;12.27;84.84;103368.34;5042823;28;20314;-51
2021/10/08 10:25:02;;;;;;;39.45;21.20;;;;;;;12.41;84.82;103370.84;5044147;28;20036;-57
2021/10/08 10:27:28;;;;;;;40.45;22.38;;;;;;;12.54;84.50;103362.72;5050761;28;20100;-53
2021/10/08 10:29:54;;;;;;;38.05;22.65;;;;;;;12.78;82.78;103361.53;5051349;28;20440;-50
2021/10/08 10:32:19;;;;;;;38.90;21.83;;;;;;;12.93;82.55;103363.09;5043311;28;20464;-55
2021/10/08 10:34:46;;;;;;;39.22;22.88;;;;;;;13.45;80.71;103366.75;5044155;28;20036;-55
2021/10/08 10:37:39;;;;;;;35.78;21.77;;;;;;;13.84;76.21;103359.00;5031400;28;20025;-57
2021/10/08 10:40:21;;;;;;;43.72;24.90;;;;;;;13.37;78.84;103364.22;5030303;28;20045;-54
2021/10/08 10:43:13;;;;;;;41.00;24.30;;;;;;;13.44;80.62;103357.91;5035820;28;20025;-55
2021/10/08 10:45:42;;;;;;;43.80;25.83;;;;;;;14.03;77.02;103359.53;5026611;28;20405;-53
2021/10/08 10:48:23;;;;;;;40.17;23.38;;;;;;;15.20;72.74;103361.47;5026280;28;20125;-55
2021/10/08 10:51:13;;;;;;;37.28;23.20;;;;;;;16.01;70.89;103362.13;5024523;28;20045;-55
2021/10/08 10:53:49;;;;;;;36.72;23.65;;;;;;;16.54;66.90;103361.53;5017057;28;20127;-54
2021/10/08 10:56:35;;;;;;;36.88;25.50;;;;;;;17.11;67.10;103351.78;5017804;28;20050;-53
2021/10/08 10:59:29;;;;;;;36.25;24.33;;;;;;;18.20;62.85;103358.78;5017294;28;20104;-55
2021/10/08 11:02:14;;;;;;;36.88;24.70;;;;;;;18.87;59.88;103352.63;5022587;28;20104;-55
2021/10/08 11:04:46;;;;;;;34.88;24.52;;;;;;;19.15;57.93;103355.06;5016125;28;20061;-55
2021/10/08 11:07:13;;;;;;;34.00;24.45;;;;;;;18.64;58.29;103356.22;5030754;28;20037;-52
2021/10/08 11:09:40;;;;;;;38.28;26.15;;;;;;;18.15;60.55;103353.59;5021604;28;20041;-56
2021/10/08 11:12:34;;;;;;;54.03;31.88;;;;;;;16.81;64.25;103348.22;5015060;28;20070;-50
2021/10/08 11:15:15;;;;;;;42.20;26.33;;;;;;;17.43;62.89;103352.50;5027693;28;20049;-53
2021/10/08 11:17:46;;;;;;;35.60;24.40;;;;;;;18.42;60.79;103353.50;5027341;28;20113;-54